createdAt,value
2019-05-06T00:01:44.207Z,6.92
2019-05-06T00:04:14.132Z,7.00
2019-05-06T00:06:44.050Z,6.95
2019-05-06T00:09:14.706Z,7.62
2019-05-06T00:11:44.868Z,7.60
2019-05-06T00:14:14.538Z,7.35
2019-05-06T00:16:44.244Z,8.03
2019-05-06T00:19:14.092Z,6.85
2019-05-06T00:21:44.399Z,7.33
2019-05-06T00:24:14.632Z,7.85
2019-05-06T00:27:00.476Z,7.55
2019-05-06T00:29:32.013Z,7.60
2019-05-06T00:32:01.631Z,7.60
2019-05-06T00:34:31.455Z,7.30
2019-05-06T00:37:01.077Z,7.28
2019-05-06T00:39:49.575Z,7.30
2019-05-06T00:42:30.332Z,7.80
2019-05-06T00:44:59.898Z,6.80
2019-05-06T00:47:29.526Z,7.60
2019-05-06T00:49:59.073Z,7.45
2019-05-06T00:52:28.644Z,6.90
2019-05-06T00:54:58.786Z,7.33
2019-05-06T00:57:46.761Z,7.75
2019-05-06T01:00:19.818Z,8.25
2019-05-06T01:02:49.428Z,8.65
2019-05-06T01:05:19.291Z,7.37
2019-05-06T01:07:48.899Z,7.72
2019-05-06T01:10:18.711Z,6.92
2019-05-06T01:12:57.505Z,8.03
2019-05-06T01:15:28.203Z,7.62
2019-05-06T01:17:57.890Z,7.53
2019-05-06T01:20:27.467Z,7.67
2019-05-06T01:22:57.175Z,8.13
2019-05-06T01:25:26.766Z,9.40
2019-05-06T01:27:56.401Z,8.13
2019-05-06T01:30:26.331Z,7.03
2019-05-06T01:32:55.958Z,7.00
2019-05-06T01:35:25.528Z,7.70
2019-05-06T01:38:14.566Z,7.22
2019-05-06T01:41:15.037Z,7.75
2019-05-06T01:43:44.983Z,7.42
2019-05-06T01:46:14.571Z,6.45
2019-05-06T01:48:50.271Z,8.00
2019-05-06T01:51:21.400Z,7.45
2019-05-06T01:53:51.478Z,7.60
2019-05-06T01:56:21.139Z,7.95
2019-05-06T01:58:50.921Z,6.95
2019-05-06T02:01:20.510Z,9.13
2019-05-06T02:03:53.808Z,7.62
2019-05-06T02:06:24.976Z,7.70
2019-05-06T02:08:54.825Z,6.97
2019-05-06T02:11:24.468Z,8.33
2019-05-06T02:13:54.108Z,8.03
2019-05-06T02:16:24.184Z,7.37
2019-05-06T02:18:54.190Z,7.90
2019-05-06T02:21:43.716Z,7.65
2019-05-06T02:24:17.731Z,7.65
2019-05-06T02:26:47.345Z,9.10
2019-05-06T02:29:18.949Z,8.60
2019-05-06T02:32:22.755Z,8.10
2019-05-06T02:34:55.133Z,8.30
2019-05-06T02:37:29.875Z,9.08
2019-05-06T02:39:59.745Z,8.55
2019-05-06T02:42:29.539Z,9.05
2019-05-06T02:44:59.667Z,9.83
2019-05-06T02:47:38.940Z,9.60
2019-05-06T02:50:13.253Z,8.43
2019-05-06T02:52:44.139Z,9.10
2019-05-06T02:55:13.959Z,9.60
2019-05-06T02:57:44.129Z,10.10
2019-05-06T03:00:17.075Z,10.65
2019-05-06T03:02:48.111Z,10.03
2019-05-06T03:05:18.126Z,10.05
2019-05-06T03:07:47.674Z,11.55
2019-05-06T03:10:17.651Z,10.08
2019-05-06T03:12:47.251Z,11.25
2019-05-06T03:15:17.144Z,10.72
2019-05-06T03:17:46.983Z,9.83
2019-05-06T03:20:32.423Z,10.58
2019-05-06T03:23:05.795Z,10.85
2019-05-06T03:25:37.718Z,11.28
2019-05-06T03:28:07.331Z,11.35
2019-05-06T03:30:37.232Z,9.90
2019-05-06T03:33:44.734Z,10.80
2019-05-06T03:35:56.534Z,10.35
2019-05-06T03:38:09.503Z,10.48
2019-05-06T03:40:42.057Z,11.00
2019-05-06T03:43:13.079Z,11.00
2019-05-06T03:46:00.298Z,10.93
2019-05-06T03:48:33.438Z,11.45
2019-05-06T03:51:04.036Z,11.97
2019-05-06T03:53:35.911Z,10.45
2019-05-06T03:56:05.558Z,11.83
2019-05-06T03:58:37.919Z,9.93
2019-05-06T04:01:07.755Z,11.25
2019-05-06T04:03:46.753Z,10.28
2019-05-06T04:06:08.609Z,10.90
2019-05-06T04:08:38.273Z,10.20
2019-05-06T04:11:08.092Z,10.35
2019-05-06T04:13:38.367Z,10.10
2019-05-06T04:16:29.710Z,10.82
2019-05-06T04:19:13.020Z,11.75
2019-05-06T04:21:54.633Z,10.23
2019-05-06T04:24:38.244Z,11.18
2019-05-06T04:27:36.172Z,10.85
2019-05-06T04:30:06.049Z,10.48
2019-05-06T04:32:35.650Z,10.00
2019-05-06T04:35:05.598Z,10.60
2019-05-06T04:37:35.851Z,11.05
2019-05-06T04:40:05.626Z,10.60
2019-05-06T04:42:35.518Z,9.40
2019-05-06T04:45:05.735Z,9.95
2019-05-06T04:47:35.621Z,9.78
2019-05-06T04:50:05.650Z,8.20
2019-05-06T04:52:35.474Z,10.03
2019-05-06T04:55:05.406Z,10.00
2019-05-06T04:57:35.286Z,11.05
2019-05-06T05:00:05.511Z,9.63
2019-05-06T05:02:35.340Z,11.03
2019-05-06T05:05:05.342Z,9.93
2019-05-06T05:07:34.991Z,9.75
2019-05-06T05:10:17.718Z,9.83
2019-05-06T05:12:58.709Z,10.40
2019-05-06T05:15:36.688Z,9.20
2019-05-06T05:18:13.104Z,9.10
2019-05-06T05:20:46.574Z,9.23
2019-05-06T05:23:14.406Z,10.03
2019-05-06T05:25:44.237Z,10.68
2019-05-06T05:28:14.083Z,9.48
2019-05-06T05:30:43.942Z,9.98
2019-05-06T05:33:13.504Z,9.50
2019-05-06T05:35:43.372Z,9.60
2019-05-06T05:38:13.447Z,12.28
2019-05-06T05:40:43.717Z,9.30
2019-05-06T05:43:32.690Z,10.15
2019-05-06T05:46:02.905Z,10.65
2019-05-06T05:48:57.890Z,8.38
2019-05-06T05:51:27.730Z,10.78
2019-05-06T05:53:57.568Z,9.48
2019-05-06T05:56:27.253Z,11.18
2019-05-06T05:58:57.192Z,10.75
2019-05-06T06:01:27.010Z,9.75
2019-05-06T06:03:56.837Z,10.20
2019-05-06T06:06:26.673Z,9.23
2019-05-06T06:08:56.358Z,9.40
2019-05-06T06:11:47.988Z,8.90
2019-05-06T06:14:56.135Z,9.40
2019-05-06T06:17:56.788Z,9.48
2019-05-06T06:20:52.720Z,10.90
2019-05-06T06:23:28.084Z,10.65
2019-05-06T06:25:57.643Z,10.72
2019-05-06T06:28:27.407Z,9.58
2019-05-06T06:31:03.498Z,9.90
2019-05-06T06:33:33.131Z,9.50
2019-05-06T06:36:22.943Z,9.10
2019-05-06T06:39:02.266Z,9.50
2019-05-06T06:41:32.333Z,10.13
2019-05-06T06:44:04.776Z,10.25
2019-05-06T06:46:34.549Z,10.95
2019-05-06T06:49:04.154Z,10.82
2019-05-06T06:51:34.001Z,10.05
2019-05-06T06:54:03.676Z,9.93
2019-05-06T06:57:05.207Z,8.75
2019-05-06T06:59:34.022Z,10.15
2019-05-06T07:02:12.066Z,9.85
2019-05-06T07:04:47.685Z,9.63
2019-05-06T07:07:17.692Z,9.25
2019-05-06T07:09:47.523Z,9.50
2019-05-06T07:12:17.307Z,9.05
2019-05-06T07:14:47.067Z,10.15
2019-05-06T07:17:19.413Z,8.60
2019-05-06T07:19:53.523Z,9.80
2019-05-06T07:22:24.716Z,10.10
2019-05-06T07:24:54.268Z,9.90
2019-05-06T07:27:25.626Z,9.75
2019-05-06T07:29:55.229Z,9.73
2019-05-06T07:32:24.824Z,9.80
2019-05-06T07:34:54.398Z,10.00
2019-05-06T07:37:24.280Z,10.25
2019-05-06T07:39:53.863Z,10.23
2019-05-06T07:42:29.230Z,9.18
2019-05-06T07:45:14.543Z,9.68
2019-05-06T07:47:56.678Z,8.98
2019-05-06T07:50:26.589Z,8.70
2019-05-06T07:53:09.144Z,8.40
2019-05-06T07:55:42.077Z,9.85
2019-05-06T07:58:13.450Z,10.20
2019-05-06T08:00:42.393Z,9.30
2019-05-06T08:03:14.054Z,10.00
2019-05-06T08:05:55.255Z,7.95
2019-05-06T08:08:14.609Z,8.98
2019-05-06T08:10:44.512Z,7.95
2019-05-06T08:13:14.111Z,9.18
2019-05-06T08:15:44.039Z,10.15
2019-05-06T08:18:14.310Z,8.80
2019-05-06T08:20:43.913Z,8.38
2019-05-06T08:23:28.751Z,8.50
2019-05-06T08:26:11.625Z,8.63
2019-05-06T08:28:38.557Z,8.80
2019-05-06T08:31:02.423Z,9.65
2019-05-06T08:33:32.696Z,8.83
2019-05-06T08:36:11.557Z,8.90
2019-05-06T08:38:53.278Z,8.68
2019-05-06T08:41:22.980Z,8.70
2019-05-06T08:43:52.958Z,7.20
2019-05-06T08:46:23.494Z,8.58
2019-05-06T08:48:53.286Z,9.18
2019-05-06T08:51:33.194Z,7.97
2019-05-06T08:54:06.044Z,7.37
2019-05-06T08:56:36.251Z,8.63
2019-05-06T08:59:05.915Z,8.08
2019-05-06T09:01:53.331Z,7.90
2019-05-06T09:04:23.203Z,8.50
2019-05-06T09:06:53.545Z,8.20
2019-05-06T09:09:23.326Z,8.05
2019-05-06T09:11:53.633Z,7.90
2019-05-06T09:14:23.861Z,7.80
2019-05-06T09:16:54.131Z,6.60
2019-05-06T09:19:27.006Z,7.78
2019-05-06T09:21:56.589Z,7.92
2019-05-06T09:24:26.484Z,8.40
2019-05-06T09:27:18.934Z,8.23
2019-05-06T09:29:53.724Z,7.67
2019-05-06T09:32:35.668Z,7.95
2019-05-06T09:35:03.084Z,8.35
2019-05-06T09:37:32.706Z,7.80
2019-05-06T09:40:02.936Z,9.28
2019-05-06T09:42:32.702Z,8.78
2019-05-06T09:45:02.538Z,7.85
2019-05-06T09:47:52.958Z,6.83
2019-05-06T09:50:45.566Z,7.60
2019-05-06T09:53:23.092Z,7.60
2019-05-06T09:56:12.956Z,8.03
2019-05-06T09:58:43.891Z,7.67
2019-05-06T10:01:14.562Z,6.87
2019-05-06T10:03:44.314Z,6.60
2019-05-06T10:06:13.929Z,7.97
2019-05-06T10:08:43.577Z,6.28
2019-05-06T10:11:13.184Z,7.42
2019-05-06T10:13:43.179Z,6.50
2019-05-06T10:16:13.097Z,7.80
2019-05-06T10:18:42.713Z,7.58
2019-05-06T10:21:12.560Z,8.00
2019-05-06T10:23:42.410Z,6.90
2019-05-06T10:26:12.954Z,7.58
2019-05-06T10:28:57.912Z,7.37
2019-05-06T10:31:29.232Z,7.00
2019-05-06T10:34:13.852Z,6.40
2019-05-06T10:36:49.998Z,8.20
2019-05-06T10:39:24.423Z,7.80
2019-05-06T10:42:13.023Z,7.53
2019-05-06T10:44:57.456Z,7.45
2019-05-06T10:47:27.001Z,7.87
2019-05-06T10:49:56.599Z,7.58
2019-05-06T10:52:33.812Z,6.90
2019-05-06T10:55:03.561Z,7.37
2019-05-06T10:57:40.443Z,6.47
2019-05-06T11:00:12.262Z,6.87
2019-05-06T11:02:52.418Z,6.83
2019-05-06T11:05:22.151Z,6.67
2019-05-06T11:07:52.173Z,5.97
2019-05-06T11:10:28.384Z,6.08
2019-05-06T11:12:53.069Z,7.05
2019-05-06T11:15:23.435Z,6.70
2019-05-06T11:17:53.128Z,6.75
2019-05-06T11:20:24.210Z,6.42
2019-05-06T11:22:53.854Z,5.90
2019-05-06T11:25:23.617Z,6.87
2019-05-06T11:27:53.475Z,8.00
2019-05-06T11:30:44.865Z,8.33
2019-05-06T11:33:36.443Z,8.85
2019-05-06T11:36:15.159Z,10.13
2019-05-06T11:38:44.080Z,7.97
2019-05-06T11:41:13.670Z,7.55
2019-05-06T11:43:43.327Z,5.80
2019-05-06T11:46:12.881Z,7.62
2019-05-06T11:48:43.222Z,8.75
2019-05-06T11:51:14.652Z,8.68
2019-05-06T11:53:44.764Z,8.40
2019-05-06T11:56:14.635Z,7.80
2019-05-06T11:58:48.716Z,7.90
2019-05-06T12:01:40.222Z,7.17
2019-05-06T12:04:09.837Z,7.60
2019-05-06T12:06:39.462Z,8.00
2019-05-06T12:09:13.937Z,7.67
2019-05-06T12:11:43.163Z,7.55
2019-05-06T12:14:12.927Z,8.13
2019-05-06T12:16:42.510Z,8.38
2019-05-06T12:19:13.079Z,9.53
2019-05-06T12:21:43.184Z,7.42
2019-05-06T12:24:12.942Z,8.75
2019-05-06T12:26:42.981Z,8.30
2019-05-06T12:29:12.939Z,8.50
2019-05-06T12:31:42.601Z,8.18
2019-05-06T12:34:14.447Z,8.70
2019-05-06T12:36:43.674Z,8.05
2019-05-06T12:39:23.111Z,7.75
2019-05-06T12:42:14.730Z,8.05
2019-05-06T12:45:03.561Z,8.25
2019-05-06T12:47:38.579Z,7.58
2019-05-06T12:50:08.986Z,8.40
2019-05-06T12:52:38.574Z,7.95
2019-05-06T12:55:20.387Z,7.00
2019-05-06T12:57:43.130Z,7.47
2019-05-06T13:00:13.009Z,6.08
2019-05-06T13:02:43.750Z,7.25
2019-05-06T13:05:14.141Z,7.72
2019-05-06T13:07:46.335Z,7.45
2019-05-06T13:10:19.460Z,7.95
2019-05-06T13:12:59.838Z,6.58
2019-05-06T13:15:29.552Z,6.83
2019-05-06T13:17:59.108Z,7.35
2019-05-06T13:20:33.986Z,6.40
2019-05-06T13:23:35.161Z,7.28
2019-05-06T13:26:03.106Z,7.28
2019-05-06T13:28:35.310Z,6.95
2019-05-06T13:31:16.001Z,6.40
2019-05-06T13:33:54.034Z,6.80
2019-05-06T13:36:22.964Z,5.50
2019-05-06T13:39:08.549Z,5.92
2019-05-06T13:41:23.984Z,6.20
2019-05-06T13:44:27.409Z,5.50
2019-05-06T13:46:57.138Z,5.72
2019-05-06T13:49:46.390Z,6.70
2019-05-06T13:52:22.960Z,6.12
2019-05-06T13:54:53.084Z,7.20
2019-05-06T13:57:22.721Z,5.75
2019-05-06T13:59:53.264Z,6.90
2019-05-06T14:02:45.067Z,5.90
2019-05-06T14:05:15.140Z,6.10
2019-05-06T14:07:44.902Z,6.37
2019-05-06T14:10:14.735Z,6.20
2019-05-06T14:12:44.330Z,6.72
2019-05-06T14:15:14.407Z,7.28
2019-05-06T14:17:44.713Z,7.25
2019-05-06T14:20:14.735Z,6.95
2019-05-06T14:22:44.357Z,7.10
2019-05-06T14:25:33.991Z,7.37
2019-05-06T14:28:13.439Z,6.70
2019-05-06T14:30:55.276Z,7.00
2019-05-06T14:33:24.890Z,7.10
2019-05-06T14:35:54.822Z,7.80
2019-05-06T14:38:24.820Z,8.20
2019-05-06T14:41:26.123Z,7.23
2019-05-06T14:43:51.278Z,7.63
2019-05-06T14:46:22.804Z,7.60
2019-05-06T14:48:53.406Z,8.23
2019-05-06T14:51:23.250Z,6.80
2019-05-06T14:53:53.194Z,6.07
2019-05-06T14:56:46.093Z,7.07
2019-05-06T14:59:15.766Z,8.53
2019-05-06T15:01:45.875Z,7.60
2019-05-06T15:04:15.897Z,8.33
2019-05-06T15:06:45.814Z,9.38
2019-05-06T15:09:15.509Z,9.95
2019-05-06T15:11:45.095Z,9.98
2019-05-06T15:14:14.858Z,11.33
2019-05-06T15:16:44.399Z,10.93
2019-05-06T15:19:17.018Z,12.70
2019-05-06T15:21:46.757Z,13.43
2019-05-06T15:24:16.624Z,14.60
2019-05-06T15:26:46.694Z,14.07
2019-05-06T15:29:16.326Z,15.72
2019-05-06T15:32:22.049Z,14.68
2019-05-06T15:35:16.003Z,16.73
2019-05-06T15:37:49.944Z,14.87
2019-05-06T15:40:31.227Z,14.45
2019-05-06T15:42:53.202Z,14.50
2019-05-06T15:45:22.319Z,13.30
2019-05-06T15:47:52.458Z,14.85
2019-05-06T15:50:23.088Z,14.00
2019-05-06T15:52:53.851Z,13.93
2019-05-06T15:55:23.770Z,14.55
2019-05-06T15:57:53.634Z,13.48
2019-05-06T16:00:23.736Z,13.75
2019-05-06T16:02:53.541Z,13.75
2019-05-06T16:05:26.425Z,14.05
2019-05-06T16:07:54.684Z,13.60
2019-05-06T16:10:24.375Z,12.58
2019-05-06T16:12:54.015Z,11.80
2019-05-06T16:15:24.950Z,11.90
2019-05-06T16:17:54.635Z,11.55
2019-05-06T16:20:24.292Z,12.18
2019-05-06T16:23:03.334Z,12.53
2019-05-06T16:25:33.051Z,13.98
2019-05-06T16:28:02.620Z,13.40
2019-05-06T16:30:33.698Z,14.15
2019-05-06T16:33:04.113Z,14.35
2019-05-06T16:35:33.789Z,16.20
2019-05-06T16:38:03.395Z,15.38
2019-05-06T16:40:33.599Z,16.02
2019-05-06T16:43:03.351Z,13.95
2019-05-06T16:45:33.240Z,14.65
2019-05-06T16:48:03.619Z,15.13
2019-05-06T16:50:34.521Z,14.90
2019-05-06T16:53:04.176Z,15.50
2019-05-06T16:55:55.494Z,15.85
2019-05-06T16:58:27.882Z,14.53
2019-05-06T17:00:57.438Z,14.90
2019-05-06T17:03:33.181Z,13.72
2019-05-06T17:06:13.820Z,13.75
2019-05-06T17:08:42.582Z,12.82
2019-05-06T17:11:24.320Z,13.15
2019-05-06T17:13:44.638Z,13.53
2019-05-06T17:16:14.344Z,12.75
2019-05-06T17:18:43.908Z,12.70
2019-05-06T17:21:13.512Z,14.13
2019-05-06T17:23:43.404Z,14.43
2019-05-06T17:26:12.952Z,13.25
2019-05-06T17:28:57.032Z,12.28
2019-05-06T17:31:33.707Z,12.82
2019-05-06T17:34:03.898Z,11.75
2019-05-06T17:36:34.835Z,12.95
2019-05-06T17:39:07.002Z,12.40
2019-05-06T17:41:45.993Z,11.97
2019-05-06T17:44:08.949Z,11.03
2019-05-06T17:46:46.663Z,11.28
2019-05-06T17:49:23.026Z,12.15
2019-05-06T17:52:08.000Z,12.40
2019-05-06T17:54:37.866Z,11.10
2019-05-06T17:57:07.712Z,10.35
2019-05-06T17:59:37.860Z,10.55
2019-05-06T18:02:14.806Z,10.58
2019-05-06T18:04:44.513Z,11.63
2019-05-06T18:07:14.096Z,10.23
2019-05-06T18:09:43.767Z,11.20
2019-05-06T18:12:13.379Z,10.60
2019-05-06T18:14:43.691Z,11.45
2019-05-06T18:17:13.298Z,11.95
2019-05-06T18:19:43.122Z,11.80
2019-05-06T18:22:13.262Z,11.85
2019-05-06T18:24:42.911Z,11.15
2019-05-06T18:27:13.164Z,11.93
2019-05-06T18:29:43.197Z,11.85
2019-05-06T18:32:12.821Z,11.95
2019-05-06T18:34:42.484Z,12.80
2019-05-06T18:37:12.792Z,12.10
2019-05-06T18:39:42.896Z,14.50
2019-05-06T18:42:19.083Z,12.18
2019-05-06T18:44:44.018Z,12.60
2019-05-06T18:47:13.794Z,12.65
2019-05-06T18:49:43.470Z,12.65
2019-05-06T18:52:13.576Z,12.40
2019-05-06T18:54:43.425Z,13.45
2019-05-06T18:57:13.201Z,13.53
2019-05-06T18:59:43.124Z,13.83
2019-05-06T19:02:13.374Z,13.13
2019-05-06T19:04:57.011Z,14.10
2019-05-06T19:07:26.702Z,12.98
2019-05-06T19:10:03.001Z,12.43
2019-05-06T19:12:39.478Z,12.47
2019-05-06T19:15:03.464Z,13.75
2019-05-06T19:17:33.699Z,11.80
2019-05-06T19:20:03.312Z,12.05
2019-05-06T19:22:33.105Z,10.35
2019-05-06T19:25:02.976Z,10.20
2019-05-06T19:27:33.435Z,10.53
2019-05-06T19:30:03.274Z,11.40
2019-05-06T19:32:35.510Z,10.08
2019-05-06T19:35:05.524Z,10.10
2019-05-06T19:37:35.160Z,10.48
2019-05-06T19:40:05.343Z,10.53
2019-05-06T19:42:46.099Z,9.53
2019-05-06T19:45:09.587Z,10.98
2019-05-06T19:47:39.307Z,11.00
2019-05-06T19:50:08.970Z,10.90
2019-05-06T19:52:38.832Z,8.48
2019-05-06T19:55:09.131Z,11.55
2019-05-06T19:57:38.763Z,9.50
2019-05-06T20:00:10.130Z,10.20
2019-05-06T20:02:39.664Z,11.28
2019-05-06T20:05:16.773Z,10.60
2019-05-06T20:08:12.374Z,11.38
2019-05-06T20:10:52.879Z,10.80
2019-05-06T20:13:23.180Z,10.93
2019-05-06T20:15:53.660Z,11.97
2019-05-06T20:18:24.474Z,12.13
2019-05-06T20:20:57.366Z,12.10
2019-05-06T20:23:29.082Z,13.13
2019-05-06T20:26:00.186Z,10.98
2019-05-06T20:28:32.086Z,13.20
2019-05-06T20:31:02.510Z,12.10
2019-05-06T20:33:37.363Z,11.83
2019-05-06T20:36:12.587Z,10.98
2019-05-06T20:38:43.659Z,10.32
2019-05-06T20:41:14.238Z,11.93
2019-05-06T20:43:43.859Z,10.50
2019-05-06T20:46:13.694Z,8.78
2019-05-06T20:48:43.561Z,10.70
2019-05-06T20:51:13.167Z,10.65
2019-05-06T20:53:43.851Z,10.68
2019-05-06T20:56:13.387Z,10.82
2019-05-06T20:58:42.991Z,8.88
2019-05-06T21:01:12.571Z,9.30
2019-05-06T21:03:42.583Z,9.50
2019-05-06T21:06:13.165Z,9.50
2019-05-06T21:08:43.866Z,9.28
2019-05-06T21:11:25.760Z,7.58
2019-05-06T21:13:44.648Z,9.05
2019-05-06T21:16:14.520Z,9.63
2019-05-06T21:18:44.109Z,9.98
2019-05-06T21:21:16.795Z,10.60
2019-05-06T21:23:46.579Z,8.45
2019-05-06T21:26:16.130Z,9.50
2019-05-06T21:28:46.549Z,9.00
2019-05-06T21:31:16.137Z,9.53
2019-05-06T21:33:46.319Z,9.95
2019-05-06T21:36:16.027Z,11.15
2019-05-06T21:38:45.870Z,9.88
2019-05-06T21:41:17.806Z,10.48
2019-05-06T21:43:49.886Z,10.65
2019-05-06T21:46:18.353Z,11.35
2019-05-06T21:48:47.938Z,10.40
2019-05-06T21:51:17.608Z,12.80
2019-05-06T21:53:47.171Z,11.60
2019-05-06T21:56:16.791Z,10.88
2019-05-06T21:58:46.339Z,13.13
2019-05-06T22:01:15.967Z,11.30
2019-05-06T22:03:45.532Z,12.33
2019-05-06T22:06:15.123Z,14.53
2019-05-06T22:08:44.742Z,13.95
2019-05-06T22:11:14.319Z,14.50
2019-05-06T22:13:57.568Z,14.85
2019-05-06T22:16:15.423Z,14.78
2019-05-06T22:18:45.566Z,15.10
2019-05-06T22:21:25.311Z,15.95
2019-05-06T22:23:59.731Z,14.90
2019-05-06T22:26:29.806Z,15.72
2019-05-06T22:28:59.439Z,15.95
2019-05-06T22:31:29.241Z,16.82
2019-05-06T22:33:58.789Z,16.27
2019-05-06T22:36:28.483Z,16.52
2019-05-06T22:38:58.075Z,17.10
2019-05-06T22:41:27.687Z,16.50
2019-05-06T22:43:57.287Z,15.32
2019-05-06T22:46:26.823Z,16.67
2019-05-06T22:48:56.715Z,17.15
2019-05-06T22:51:26.273Z,16.75
2019-05-06T22:53:55.837Z,17.30
2019-05-06T22:56:25.418Z,17.37
2019-05-06T22:58:55.063Z,17.62
2019-05-06T23:01:45.345Z,19.12
2019-05-06T23:04:16.458Z,18.80
2019-05-06T23:06:46.308Z,18.70
2019-05-06T23:09:16.459Z,17.90
2019-05-06T23:11:46.035Z,20.75
2019-05-06T23:14:27.902Z,19.70
2019-05-06T23:16:47.326Z,18.20
2019-05-06T23:19:17.191Z,18.73
2019-05-06T23:21:46.796Z,18.77
2019-05-06T23:24:16.406Z,19.65
2019-05-06T23:26:46.266Z,20.35
2019-05-06T23:29:16.138Z,18.60
2019-05-06T23:31:45.728Z,20.88
2019-05-06T23:34:15.317Z,20.60
2019-05-06T23:37:28.093Z,19.45
2019-05-06T23:40:35.988Z,22.00
2019-05-06T23:43:42.697Z,21.52
2019-05-06T23:46:47.318Z,24.05
2019-05-06T23:49:52.764Z,23.38
2019-05-06T23:52:57.831Z,24.35
2019-05-06T23:56:02.959Z,25.48
2019-05-06T23:58:32.615Z,26.40
